sensor_id;sensor_type;location;lat;lon;timestamp;P1;durP1;ratioP1;P2;durP2;ratioP2
438;SDS011;206;48.782;9.252;2023-05-16T00:01:29;9.27;;;8.77;;
438;SDS011;206;48.782;9.252;2023-05-16T00:03:57;9.30;;;8.80;;
438;SDS011;206;48.782;9.252;2023-05-16T00:06:22;9.90;;;9.40;;
438;SDS011;206;48.782;9.252;2023-05-16T00:08:48;9.90;;;9.40;;
438;SDS011;206;48.782;9.252;2023-05-16T00:11:15;10.33;;;9.73;;
438;SDS011;206;48.782;9.252;2023-05-16T00:13:41;10.07;;;9.53;;
438;SDS011;206;48.782;9.252;2023-05-16T00:16:07;9.33;;;8.63;;
438;SDS011;206;48.782;9.252;2023-05-16T00:18:33;9.20;;;8.70;;
438;SDS011;206;48.782;9.252;2023-05-16T00:21:02;10.67;;;10.07;;
438;SDS011;206;48.782;9.252;2023-05-16T00:23:28;9.33;;;8.83;;
438;SDS011;206;48.782;9.252;2023-05-16T00:25:54;10.07;;;9.50;;
438;SDS011;206;48.782;9.252;2023-05-16T00:28:20;14.83;;;10.70;;
438;SDS011;206;48.782;9.252;2023-05-16T00:30:46;11.40;;;10.30;;
438;SDS011;206;48.782;9.252;2023-05-16T00:33:12;10.67;;;10.07;;
438;SDS011;206;48.782;9.252;2023-05-16T00:35:37;11.80;;;10.50;;
438;SDS011;206;48.782;9.252;2023-05-16T00:38:03;10.40;;;9.90;;
438;SDS011;206;48.782;9.252;2023-05-16T00:40:28;10.47;;;9.93;;
438;SDS011;206;48.782;9.252;2023-05-16T00:42:54;12.57;;;10.90;;
438;SDS011;206;48.782;9.252;2023-05-16T00:45:20;16.47;;;9.07;;
438;SDS011;206;48.782;9.252;2023-05-16T00:47:45;16.30;;;11.53;;
438;SDS011;206;48.782;9.252;2023-05-16T00:50:11;10.90;;;9.70;;
438;SDS011;206;48.782;9.252;2023-05-16T00:52:37;10.80;;;10.07;;
438;SDS011;206;48.782;9.252;2023-05-16T00:55:03;10.03;;;9.53;;
438;SDS011;206;48.782;9.252;2023-05-16T00:57:29;10.50;;;9.77;;
438;SDS011;206;48.782;9.252;2023-05-16T00:59:55;10.17;;;9.67;;
438;SDS011;206;48.782;9.252;2023-05-16T01:02:21;15.17;;;11.20;;
438;SDS011;206;48.782;9.252;2023-05-16T01:04:47;12.73;;;11.70;;
438;SDS011;206;48.782;9.252;2023-05-16T01:07:13;11.00;;;10.40;;
438;SDS011;206;48.782;9.252;2023-05-16T01:09:39;18.00;;;13.53;;
438;SDS011;206;48.782;9.252;2023-05-16T01:12:10;12.20;;;11.60;;
438;SDS011;206;48.782;9.252;2023-05-16T01:28:09;17.47;;;12.03;;
438;SDS011;206;48.782;9.252;2023-05-16T01:30:38;15.50;;;13.77;;
438;SDS011;206;48.782;9.252;2023-05-16T01:33:04;17.50;;;14.47;;
438;SDS011;206;48.782;9.252;2023-05-16T01:35:30;14.50;;;13.83;;
438;SDS011;206;48.782;9.252;2023-05-16T01:38:39;14.07;;;13.37;;
438;SDS011;206;48.782;9.252;2023-05-16T01:43:47;15.60;;;13.13;;
438;SDS011;206;48.782;9.252;2023-05-16T01:46:20;13.50;;;12.80;;
438;SDS011;206;48.782;9.252;2023-05-16T01:51:18;16.90;;;13.90;;
438;SDS011;206;48.782;9.252;2023-05-16T01:53:46;17.17;;;14.33;;
438;SDS011;206;48.782;9.252;2023-05-16T01:56:14;15.97;;;14.07;;
438;SDS011;206;48.782;9.252;2023-05-16T01:58:41;15.00;;;14.20;;
438;SDS011;206;48.782;9.252;2023-05-16T02:01:07;14.93;;;14.13;;
438;SDS011;206;48.782;9.252;2023-05-16T02:03:32;15.20;;;14.40;;
438;SDS011;206;48.782;9.252;2023-05-16T02:05:58;16.63;;;14.93;;
438;SDS011;206;48.782;9.252;2023-05-16T02:08:24;16.30;;;15.50;;
438;SDS011;206;48.782;9.252;2023-05-16T02:10:51;20.80;;;15.47;;
438;SDS011;206;48.782;9.252;2023-05-16T02:13:17;16.87;;;16.00;;
438;SDS011;206;48.782;9.252;2023-05-16T02:15:43;18.73;;;17.80;;
438;SDS011;206;48.782;9.252;2023-05-16T02:18:08;25.27;;;21.60;;
438;SDS011;206;48.782;9.252;2023-05-16T02:20:35;21.87;;;20.77;;
438;SDS011;206;48.782;9.252;2023-05-16T02:23:00;26.67;;;21.53;;
438;SDS011;206;48.782;9.252;2023-05-16T02:25:27;26.10;;;22.77;;
438;SDS011;206;48.782;9.252;2023-05-16T02:27:53;25.23;;;22.17;;
438;SDS011;206;48.782;9.252;2023-05-16T02:30:19;24.97;;;22.77;;
438;SDS011;206;48.782;9.252;2023-05-16T02:32:44;26.23;;;23.57;;
438;SDS011;206;48.782;9.252;2023-05-16T02:35:10;27.87;;;25.07;;
438;SDS011;206;48.782;9.252;2023-05-16T02:37:36;27.93;;;22.53;;
438;SDS011;206;48.782;9.252;2023-05-16T02:40:02;29.97;;;23.73;;
438;SDS011;206;48.782;9.252;2023-05-16T02:42:31;29.00;;;25.53;;
438;SDS011;206;48.782;9.252;2023-05-16T02:44:57;26.37;;;22.43;;
438;SDS011;206;48.782;9.252;2023-05-16T02:47:23;30.90;;;25.13;;
438;SDS011;206;48.782;9.252;2023-05-16T02:49:48;32.37;;;25.10;;
438;SDS011;206;48.782;9.252;2023-05-16T02:52:16;31.23;;;26.90;;
438;SDS011;206;48.782;9.252;2023-05-16T02:54:45;29.30;;;26.00;;
438;SDS011;206;48.782;9.252;2023-05-16T02:57:11;32.10;;;27.80;;
438;SDS011;206;48.782;9.252;2023-05-16T02:59:36;29.97;;;25.27;;
438;SDS011;206;48.782;9.252;2023-05-16T03:02:02;33.37;;;26.90;;
438;SDS011;206;48.782;9.252;2023-05-16T03:04:28;30.30;;;26.43;;
438;SDS011;206;48.782;9.252;2023-05-16T03:06:54;33.10;;;26.03;;
438;SDS011;206;48.782;9.252;2023-05-16T03:09:19;31.53;;;26.83;;
438;SDS011;206;48.782;9.252;2023-05-16T03:11:45;34.07;;;26.57;;
438;SDS011;206;48.782;9.252;2023-05-16T03:14:11;30.37;;;26.77;;
438;SDS011;206;48.782;9.252;2023-05-16T03:16:37;29.70;;;25.80;;
438;SDS011;206;48.782;9.252;2023-05-16T03:19:04;31.20;;;26.93;;
438;SDS011;206;48.782;9.252;2023-05-16T03:21:29;32.87;;;26.77;;
438;SDS011;206;48.782;9.252;2023-05-16T03:23:56;33.10;;;26.50;;
438;SDS011;206;48.782;9.252;2023-05-16T03:26:22;35.60;;;26.70;;
438;SDS011;206;48.782;9.252;2023-05-16T03:28:48;36.03;;;27.93;;
438;SDS011;206;48.782;9.252;2023-05-16T03:31:15;32.73;;;27.67;;
438;SDS011;206;48.782;9.252;2023-05-16T03:33:40;35.70;;;27.00;;
438;SDS011;206;48.782;9.252;2023-05-16T03:36:06;32.57;;;26.13;;
438;SDS011;206;48.782;9.252;2023-05-16T03:38:32;38.87;;;28.90;;
438;SDS011;206;48.782;9.252;2023-05-16T03:40:58;44.40;;;29.43;;
438;SDS011;206;48.782;9.252;2023-05-16T03:43:23;37.23;;;29.43;;
438;SDS011;206;48.782;9.252;2023-05-16T03:45:49;37.30;;;30.47;;
438;SDS011;206;48.782;9.252;2023-05-16T03:48:14;39.73;;;29.37;;
438;SDS011;206;48.782;9.252;2023-05-16T03:50:40;37.30;;;29.67;;
438;SDS011;206;48.782;9.252;2023-05-16T03:53:06;50.30;;;31.10;;
438;SDS011;206;48.782;9.252;2023-05-16T03:55:32;40.30;;;31.10;;
438;SDS011;206;48.782;9.252;2023-05-16T03:57:59;39.10;;;30.07;;
438;SDS011;206;48.782;9.252;2023-05-16T04:00:24;45.07;;;31.60;;
438;SDS011;206;48.782;9.252;2023-05-16T04:02:50;40.90;;;31.63;;
438;SDS011;206;48.782;9.252;2023-05-16T04:05:16;38.37;;;30.17;;
438;SDS011;206;48.782;9.252;2023-05-16T04:07:42;44.07;;;31.00;;
438;SDS011;206;48.782;9.252;2023-05-16T04:10:07;45.37;;;34.17;;
438;SDS011;206;48.782;9.252;2023-05-16T04:12:33;41.33;;;31.70;;
438;SDS011;206;48.782;9.252;2023-05-16T04:14:59;42.37;;;31.70;;
438;SDS011;206;48.782;9.252;2023-05-16T04:17:26;41.50;;;30.70;;
438;SDS011;206;48.782;9.252;2023-05-16T04:19:51;42.73;;;33.03;;
438;SDS011;206;48.782;9.252;2023-05-16T04:22:17;43.50;;;32.50;;
438;SDS011;206;48.782;9.252;2023-05-16T04:24:44;42.93;;;32.13;;
438;SDS011;206;48.782;9.252;2023-05-16T04:27:10;44.30;;;33.67;;
438;SDS011;206;48.782;9.252;2023-05-16T04:29:36;48.77;;;34.83;;
438;SDS011;206;48.782;9.252;2023-05-16T04:32:01;45.60;;;34.37;;
438;SDS011;206;48.782;9.252;2023-05-16T04:34:27;44.57;;;31.83;;
438;SDS011;206;48.782;9.252;2023-05-16T04:36:53;50.20;;;35.33;;
438;SDS011;206;48.782;9.252;2023-05-16T04:39:19;45.50;;;33.43;;
438;SDS011;206;48.782;9.252;2023-05-16T04:41:45;41.33;;;33.50;;
438;SDS011;206;48.782;9.252;2023-05-16T04:44:10;40.47;;;32.00;;
438;SDS011;206;48.782;9.252;2023-05-16T04:46:36;41.40;;;32.67;;
438;SDS011;206;48.782;9.252;2023-05-16T04:49:02;41.07;;;30.80;;
438;SDS011;206;48.782;9.252;2023-05-16T04:51:27;50.97;;;34.90;;
438;SDS011;206;48.782;9.252;2023-05-16T04:53:53;44.03;;;35.00;;
438;SDS011;206;48.782;9.252;2023-05-16T04:56:19;41.73;;;32.97;;
438;SDS011;206;48.782;9.252;2023-05-16T04:58:44;40.03;;;30.87;;
438;SDS011;206;48.782;9.252;2023-05-16T05:01:10;45.50;;;33.40;;
438;SDS011;206;48.782;9.252;2023-05-16T05:03:36;41.67;;;32.10;;
438;SDS011;206;48.782;9.252;2023-05-16T05:06:02;37.57;;;30.83;;
438;SDS011;206;48.782;9.252;2023-05-16T05:08:28;39.37;;;31.70;;
438;SDS011;206;48.782;9.252;2023-05-16T05:10:57;37.00;;;29.77;;
438;SDS011;206;48.782;9.252;2023-05-16T05:13:22;45.70;;;31.20;;
438;SDS011;206;48.782;9.252;2023-05-16T05:15:48;43.07;;;29.23;;
438;SDS011;206;48.782;9.252;2023-05-16T05:18:16;36.30;;;28.03;;
438;SDS011;206;48.782;9.252;2023-05-16T05:20:42;35.93;;;28.50;;
438;SDS011;206;48.782;9.252;2023-05-16T05:23:08;38.67;;;29.60;;
438;SDS011;206;48.782;9.252;2023-05-16T05:25:34;39.73;;;28.00;;
438;SDS011;206;48.782;9.252;2023-05-16T05:28:01;42.53;;;30.50;;
438;SDS011;206;48.782;9.252;2023-05-16T05:30:26;45.23;;;32.17;;
438;SDS011;206;48.782;9.252;2023-05-16T05:32:52;43.07;;;30.90;;
438;SDS011;206;48.782;9.252;2023-05-16T05:35:18;42.67;;;29.77;;
438;SDS011;206;48.782;9.252;2023-05-16T05:37:44;50.30;;;30.70;;
438;SDS011;206;48.782;9.252;2023-05-16T05:40:10;42.33;;;31.40;;
438;SDS011;206;48.782;9.252;2023-05-16T05:42:36;38.47;;;31.00;;
438;SDS011;206;48.782;9.252;2023-05-16T05:45:02;47.30;;;29.60;;
438;SDS011;206;48.782;9.252;2023-05-16T05:47:28;42.07;;;30.07;;
438;SDS011;206;48.782;9.252;2023-05-16T05:49:53;41.80;;;30.10;;
438;SDS011;206;48.782;9.252;2023-05-16T05:52:19;40.83;;;29.93;;
438;SDS011;206;48.782;9.252;2023-05-16T05:54:46;41.10;;;30.27;;
438;SDS011;206;48.782;9.252;2023-05-16T05:57:12;44.93;;;30.20;;
438;SDS011;206;48.782;9.252;2023-05-16T05:59:37;41.00;;;29.30;;
438;SDS011;206;48.782;9.252;2023-05-16T06:02:03;38.30;;;30.40;;
438;SDS011;206;48.782;9.252;2023-05-16T06:04:29;44.83;;;28.53;;
438;SDS011;206;48.782;9.252;2023-05-16T06:06:55;44.10;;;31.13;;
438;SDS011;206;48.782;9.252;2023-05-16T06:09:20;39.40;;;30.53;;
438;SDS011;206;48.782;9.252;2023-05-16T06:11:46;42.37;;;28.93;;
438;SDS011;206;48.782;9.252;2023-05-16T06:14:13;39.37;;;30.57;;
438;SDS011;206;48.782;9.252;2023-05-16T06:16:39;42.87;;;30.00;;
438;SDS011;206;48.782;9.252;2023-05-16T06:19:05;38.17;;;29.73;;
438;SDS011;206;48.782;9.252;2023-05-16T06:21:31;41.50;;;29.83;;
438;SDS011;206;48.782;9.252;2023-05-16T06:23:57;42.50;;;31.23;;
438;SDS011;206;48.782;9.252;2023-05-16T06:26:23;40.70;;;29.40;;
438;SDS011;206;48.782;9.252;2023-05-16T06:28:48;40.17;;;31.47;;
438;SDS011;206;48.782;9.252;2023-05-16T06:31:14;43.07;;;29.63;;
438;SDS011;206;48.782;9.252;2023-05-16T06:33:40;37.60;;;29.50;;
438;SDS011;206;48.782;9.252;2023-05-16T06:36:06;32.07;;;27.10;;
438;SDS011;206;48.782;9.252;2023-05-16T06:38:31;36.50;;;27.33;;
438;SDS011;206;48.782;9.252;2023-05-16T06:40:57;33.00;;;25.20;;
438;SDS011;206;48.782;9.252;2023-05-16T06:43:23;35.67;;;25.80;;
438;SDS011;206;48.782;9.252;2023-05-16T06:45:48;29.70;;;25.23;;
438;SDS011;206;48.782;9.252;2023-05-16T06:48:16;31.83;;;24.07;;
438;SDS011;206;48.782;9.252;2023-05-16T06:50:42;32.27;;;24.63;;
438;SDS011;206;48.782;9.252;2023-05-16T06:53:11;33.93;;;24.93;;
438;SDS011;206;48.782;9.252;2023-05-16T06:55:37;28.33;;;23.00;;
438;SDS011;206;48.782;9.252;2023-05-16T06:58:03;26.30;;;23.30;;
438;SDS011;206;48.782;9.252;2023-05-16T07:00:28;30.17;;;24.70;;
438;SDS011;206;48.782;9.252;2023-05-16T07:02:54;26.60;;;22.47;;
438;SDS011;206;48.782;9.252;2023-05-16T07:05:20;32.90;;;22.40;;
438;SDS011;206;48.782;9.252;2023-05-16T07:07:45;23.77;;;20.67;;
438;SDS011;206;48.782;9.252;2023-05-16T07:10:13;29.90;;;21.60;;
438;SDS011;206;48.782;9.252;2023-05-16T07:12:40;31.17;;;22.73;;
438;SDS011;206;48.782;9.252;2023-05-16T07:15:07;26.77;;;20.60;;
438;SDS011;206;48.782;9.252;2023-05-16T07:17:32;25.63;;;22.47;;
438;SDS011;206;48.782;9.252;2023-05-16T07:19:58;27.17;;;22.40;;
438;SDS011;206;48.782;9.252;2023-05-16T07:22:24;28.20;;;21.73;;
438;SDS011;206;48.782;9.252;2023-05-16T07:24:49;27.27;;;21.87;;
438;SDS011;206;48.782;9.252;2023-05-16T07:27:17;29.07;;;21.30;;
438;SDS011;206;48.782;9.252;2023-05-16T07:29:42;27.03;;;20.97;;
438;SDS011;206;48.782;9.252;2023-05-16T07:32:08;29.37;;;21.00;;
438;SDS011;206;48.782;9.252;2023-05-16T07:34:34;27.50;;;20.87;;
438;SDS011;206;48.782;9.252;2023-05-16T07:36:59;25.03;;;21.17;;
438;SDS011;206;48.782;9.252;2023-05-16T07:39:25;20.30;;;18.50;;
438;SDS011;206;48.782;9.252;2023-05-16T07:41:50;21.97;;;18.90;;
438;SDS011;206;48.782;9.252;2023-05-16T07:44:16;21.60;;;17.13;;
438;SDS011;206;48.782;9.252;2023-05-16T07:46:41;23.80;;;17.80;;
438;SDS011;206;48.782;9.252;2023-05-16T07:49:08;16.00;;;15.30;;
438;SDS011;206;48.782;9.252;2023-05-16T07:51:34;19.53;;;16.93;;
438;SDS011;206;48.782;9.252;2023-05-16T07:54:00;21.40;;;16.17;;
438;SDS011;206;48.782;9.252;2023-05-16T07:56:26;15.20;;;13.47;;
438;SDS011;206;48.782;9.252;2023-05-16T07:58:52;15.97;;;13.80;;
438;SDS011;206;48.782;9.252;2023-05-16T08:01:17;17.97;;;12.50;;
438;SDS011;206;48.782;9.252;2023-05-16T08:03:44;15.50;;;13.80;;
438;SDS011;206;48.782;9.252;2023-05-16T08:06:09;18.50;;;12.90;;
438;SDS011;206;48.782;9.252;2023-05-16T08:08:35;14.53;;;13.27;;
438;SDS011;206;48.782;9.252;2023-05-16T08:11:01;16.23;;;13.43;;
438;SDS011;206;48.782;9.252;2023-05-16T08:13:27;14.70;;;12.40;;
438;SDS011;206;48.782;9.252;2023-05-16T08:15:52;17.00;;;13.07;;
438;SDS011;206;48.782;9.252;2023-05-16T08:18:18;14.90;;;12.50;;
438;SDS011;206;48.782;9.252;2023-05-16T08:20:43;12.93;;;11.70;;
438;SDS011;206;48.782;9.252;2023-05-16T08:23:09;13.00;;;10.83;;
438;SDS011;206;48.782;9.252;2023-05-16T08:25:35;16.90;;;10.40;;
438;SDS011;206;48.782;9.252;2023-05-16T08:28:00;20.40;;;10.37;;
438;SDS011;206;48.782;9.252;2023-05-16T08:30:26;11.43;;;9.43;;
438;SDS011;206;48.782;9.252;2023-05-16T08:32:52;12.00;;;10.57;;
438;SDS011;206;48.782;9.252;2023-05-16T08:35:17;16.43;;;10.67;;
438;SDS011;206;48.782;9.252;2023-05-16T08:37:43;12.27;;;11.60;;
438;SDS011;206;48.782;9.252;2023-05-16T08:40:09;11.43;;;10.83;;
438;SDS011;206;48.782;9.252;2023-05-16T08:42:35;11.30;;;10.70;;
438;SDS011;206;48.782;9.252;2023-05-16T08:45:01;12.63;;;11.43;;
438;SDS011;206;48.782;9.252;2023-05-16T08:47:29;13.50;;;12.70;;
438;SDS011;206;48.782;9.252;2023-05-16T08:49:56;13.67;;;11.30;;
438;SDS011;206;48.782;9.252;2023-05-16T08:52:24;13.67;;;12.93;;
438;SDS011;206;48.782;9.252;2023-05-16T08:54:55;14.63;;;13.77;;
438;SDS011;206;48.782;9.252;2023-05-16T08:57:25;15.33;;;12.17;;
438;SDS011;206;48.782;9.252;2023-05-16T08:59:51;18.90;;;13.47;;
438;SDS011;206;48.782;9.252;2023-05-16T09:02:19;14.87;;;13.63;;
438;SDS011;206;48.782;9.252;2023-05-16T09:04:46;17.20;;;13.90;;
438;SDS011;206;48.782;9.252;2023-05-16T09:07:13;18.17;;;16.00;;
438;SDS011;206;48.782;9.252;2023-05-16T09:09:38;13.97;;;13.33;;
438;SDS011;206;48.782;9.252;2023-05-16T09:12:05;17.20;;;14.20;;
438;SDS011;206;48.782;9.252;2023-05-16T09:14:31;24.13;;;15.83;;
438;SDS011;206;48.782;9.252;2023-05-16T09:17:04;21.27;;;16.40;;
438;SDS011;206;48.782;9.252;2023-05-16T09:19:40;18.57;;;16.03;;
438;SDS011;206;48.782;9.252;2023-05-16T09:22:08;21.87;;;16.67;;
438;SDS011;206;48.782;9.252;2023-05-16T09:24:39;18.77;;;16.57;;
438;SDS011;206;48.782;9.252;2023-05-16T09:27:12;18.97;;;16.70;;
438;SDS011;206;48.782;9.252;2023-05-16T09:29:42;19.53;;;17.00;;
438;SDS011;206;48.782;9.252;2023-05-16T09:32:12;20.37;;;17.57;;
438;SDS011;206;48.782;9.252;2023-05-16T09:34:46;23.63;;;19.27;;
438;SDS011;206;48.782;9.252;2023-05-16T09:37:13;21.17;;;18.90;;
438;SDS011;206;48.782;9.252;2023-05-16T09:39:46;23.87;;;20.77;;
438;SDS011;206;48.782;9.252;2023-05-16T09:42:17;21.70;;;18.87;;
438;SDS011;206;48.782;9.252;2023-05-16T09:44:51;21.87;;;16.20;;
438;SDS011;206;48.782;9.252;2023-05-16T09:47:18;24.67;;;18.60;;
438;SDS011;206;48.782;9.252;2023-05-16T09:49:45;20.47;;;16.70;;
438;SDS011;206;48.782;9.252;2023-05-16T09:52:12;25.83;;;19.17;;
438;SDS011;206;48.782;9.252;2023-05-16T09:54:38;21.17;;;17.47;;
438;SDS011;206;48.782;9.252;2023-05-16T09:57:04;22.90;;;17.37;;
438;SDS011;206;48.782;9.252;2023-05-16T09:59:31;22.20;;;18.37;;
438;SDS011;206;48.782;9.252;2023-05-16T10:02:03;19.60;;;17.60;;
438;SDS011;206;48.782;9.252;2023-05-16T10:04:30;20.80;;;19.77;;
438;SDS011;206;48.782;9.252;2023-05-16T10:06:57;21.83;;;18.27;;
438;SDS011;206;48.782;9.252;2023-05-16T10:09:32;20.43;;;17.53;;
438;SDS011;206;48.782;9.252;2023-05-16T10:12:02;21.77;;;15.93;;
438;SDS011;206;48.782;9.252;2023-05-16T10:14:34;23.33;;;18.40;;
438;SDS011;206;48.782;9.252;2023-05-16T10:17:02;21.10;;;18.67;;
438;SDS011;206;48.782;9.252;2023-05-16T10:19:35;18.80;;;17.73;;
438;SDS011;206;48.782;9.252;2023-05-16T10:22:05;25.93;;;17.90;;
438;SDS011;206;48.782;9.252;2023-05-16T10:27:32;20.50;;;16.90;;
438;SDS011;206;48.782;9.252;2023-05-16T10:29:58;23.53;;;20.43;;
438;SDS011;206;48.782;9.252;2023-05-16T10:32:24;19.57;;;17.30;;
438;SDS011;206;48.782;9.252;2023-05-16T10:34:51;20.90;;;17.47;;
438;SDS011;206;48.782;9.252;2023-05-16T10:37:19;22.63;;;17.83;;
438;SDS011;206;48.782;9.252;2023-05-16T10:39:45;25.40;;;18.10;;
438;SDS011;206;48.782;9.252;2023-05-16T10:42:11;19.63;;;16.33;;
438;SDS011;206;48.782;9.252;2023-05-16T10:44:42;18.70;;;17.37;;
438;SDS011;206;48.782;9.252;2023-05-16T10:47:08;19.00;;;16.20;;
438;SDS011;206;48.782;9.252;2023-05-16T10:49:34;17.23;;;15.10;;
438;SDS011;206;48.782;9.252;2023-05-16T10:52:09;21.70;;;16.63;;
438;SDS011;206;48.782;9.252;2023-05-16T10:54:37;19.20;;;15.60;;
438;SDS011;206;48.782;9.252;2023-05-16T10:57:24;19.27;;;15.80;;
438;SDS011;206;48.782;9.252;2023-05-16T10:59:50;18.63;;;16.77;;
438;SDS011;206;48.782;9.252;2023-05-16T11:04:53;18.27;;;15.97;;
438;SDS011;206;48.782;9.252;2023-05-16T11:07:21;20.33;;;17.97;;
438;SDS011;206;48.782;9.252;2023-05-16T11:10:04;23.10;;;17.53;;
438;SDS011;206;48.782;9.252;2023-05-16T11:12:50;17.53;;;15.70;;
438;SDS011;206;48.782;9.252;2023-05-16T11:15:18;20.30;;;15.50;;
438;SDS011;206;48.782;9.252;2023-05-16T11:17:45;19.30;;;15.30;;
438;SDS011;206;48.782;9.252;2023-05-16T11:20:30;18.40;;;16.23;;
438;SDS011;206;48.782;9.252;2023-05-16T11:25:44;19.60;;;13.80;;
438;SDS011;206;48.782;9.252;2023-05-16T11:28:13;16.57;;;13.27;;
438;SDS011;206;48.782;9.252;2023-05-16T11:30:43;13.60;;;11.30;;
438;SDS011;206;48.782;9.252;2023-05-16T11:33:14;14.83;;;12.83;;
438;SDS011;206;48.782;9.252;2023-05-16T11:35:40;15.13;;;11.30;;
438;SDS011;206;48.782;9.252;2023-05-16T11:38:13;14.20;;;10.77;;
438;SDS011;206;48.782;9.252;2023-05-16T11:40:44;12.73;;;9.87;;
438;SDS011;206;48.782;9.252;2023-05-16T11:43:10;13.90;;;10.47;;
438;SDS011;206;48.782;9.252;2023-05-16T11:45:41;14.40;;;10.70;;
438;SDS011;206;48.782;9.252;2023-05-16T11:48:07;13.47;;;10.63;;
438;SDS011;206;48.782;9.252;2023-05-16T11:50:33;11.87;;;11.27;;
438;SDS011;206;48.782;9.252;2023-05-16T11:53:00;13.23;;;10.00;;
438;SDS011;206;48.782;9.252;2023-05-16T11:55:26;12.33;;;10.40;;
438;SDS011;206;48.782;9.252;2023-05-16T11:57:54;12.90;;;11.00;;
438;SDS011;206;48.782;9.252;2023-05-16T12:00:21;10.43;;;9.00;;
438;SDS011;206;48.782;9.252;2023-05-16T12:02:51;10.37;;;9.27;;
438;SDS011;206;48.782;9.252;2023-05-16T12:05:18;12.37;;;9.40;;
438;SDS011;206;48.782;9.252;2023-05-16T12:07:49;11.17;;;9.57;;
438;SDS011;206;48.782;9.252;2023-05-16T12:10:15;10.50;;;8.83;;
438;SDS011;206;48.782;9.252;2023-05-16T12:12:41;9.20;;;8.43;;
438;SDS011;206;48.782;9.252;2023-05-16T12:15:13;11.30;;;8.97;;
438;SDS011;206;48.782;9.252;2023-05-16T12:17:41;14.00;;;8.57;;
438;SDS011;206;48.782;9.252;2023-05-16T12:20:07;11.20;;;8.90;;
438;SDS011;206;48.782;9.252;2023-05-16T12:22:41;9.40;;;8.90;;
438;SDS011;206;48.782;9.252;2023-05-16T12:25:21;10.23;;;8.73;;
438;SDS011;206;48.782;9.252;2023-05-16T12:27:51;13.40;;;9.10;;
438;SDS011;206;48.782;9.252;2023-05-16T12:30:17;9.30;;;7.87;;
438;SDS011;206;48.782;9.252;2023-05-16T12:32:45;10.63;;;9.23;;
438;SDS011;206;48.782;9.252;2023-05-16T12:35:20;9.77;;;7.63;;
438;SDS011;206;48.782;9.252;2023-05-16T12:37:46;10.37;;;8.40;;
438;SDS011;206;48.782;9.252;2023-05-16T12:40:13;9.97;;;7.93;;
438;SDS011;206;48.782;9.252;2023-05-16T12:42:39;7.03;;;6.63;;
438;SDS011;206;48.782;9.252;2023-05-16T12:45:13;6.80;;;6.40;;
438;SDS011;206;48.782;9.252;2023-05-16T12:47:40;7.77;;;7.13;;
438;SDS011;206;48.782;9.252;2023-05-16T12:50:13;8.67;;;6.50;;
438;SDS011;206;48.782;9.252;2023-05-16T12:52:50;6.70;;;6.30;;
438;SDS011;206;48.782;9.252;2023-05-16T12:55:18;6.47;;;6.13;;
438;SDS011;206;48.782;9.252;2023-05-16T12:57:46;12.63;;;6.70;;
438;SDS011;206;48.782;9.252;2023-05-16T13:00:13;8.30;;;5.40;;
438;SDS011;206;48.782;9.252;2023-05-16T13:02:42;7.23;;;5.23;;
438;SDS011;206;48.782;9.252;2023-05-16T13:05:08;6.23;;;4.83;;
438;SDS011;206;48.782;9.252;2023-05-16T13:07:37;5.23;;;5.00;;
438;SDS011;206;48.782;9.252;2023-05-16T13:10:05;5.27;;;5.00;;
438;SDS011;206;48.782;9.252;2023-05-16T13:12:34;4.70;;;4.40;;
438;SDS011;206;48.782;9.252;2023-05-16T13:15:04;7.00;;;5.10;;
438;SDS011;206;48.782;9.252;2023-05-16T13:17:31;3.90;;;3.70;;
438;SDS011;206;48.782;9.252;2023-05-16T13:20:00;5.80;;;3.77;;
438;SDS011;206;48.782;9.252;2023-05-16T13:22:29;3.90;;;3.70;;
438;SDS011;206;48.782;9.252;2023-05-16T13:24:54;3.70;;;3.50;;
438;SDS011;206;48.782;9.252;2023-05-16T13:27:20;7.70;;;3.33;;
438;SDS011;206;48.782;9.252;2023-05-16T13:29:45;8.00;;;3.40;;
438;SDS011;206;48.782;9.252;2023-05-16T13:32:11;4.67;;;3.50;;
438;SDS011;206;48.782;9.252;2023-05-16T13:34:37;4.23;;;3.97;;
438;SDS011;206;48.782;9.252;2023-05-16T13:37:02;3.97;;;3.77;;
438;SDS011;206;48.782;9.252;2023-05-16T13:39:28;4.10;;;3.00;;
438;SDS011;206;48.782;9.252;2023-05-16T13:41:54;5.17;;;3.27;;
438;SDS011;206;48.782;9.252;2023-05-16T13:44:19;6.77;;;3.83;;
438;SDS011;206;48.782;9.252;2023-05-16T13:46:46;3.20;;;3.00;;
438;SDS011;206;48.782;9.252;2023-05-16T13:49:11;7.50;;;4.07;;
438;SDS011;206;48.782;9.252;2023-05-16T13:51:37;3.03;;;2.83;;
438;SDS011;206;48.782;9.252;2023-05-16T13:54:03;5.37;;;3.50;;
438;SDS011;206;48.782;9.252;2023-05-16T13:56:28;3.40;;;3.20;;
438;SDS011;206;48.782;9.252;2023-05-16T13:58:54;3.63;;;3.43;;
438;SDS011;206;48.782;9.252;2023-05-16T14:01:19;4.47;;;3.77;;
438;SDS011;206;48.782;9.252;2023-05-16T14:03:45;3.60;;;3.10;;
438;SDS011;206;48.782;9.252;2023-05-16T14:06:11;5.73;;;3.90;;
438;SDS011;206;48.782;9.252;2023-05-16T14:08:37;5.20;;;3.40;;
438;SDS011;206;48.782;9.252;2023-05-16T14:11:02;3.47;;;3.10;;
438;SDS011;206;48.782;9.252;2023-05-16T14:13:28;7.20;;;3.83;;
438;SDS011;206;48.782;9.252;2023-05-16T14:15:54;15.00;;;4.87;;
438;SDS011;206;48.782;9.252;2023-05-16T14:18:20;4.23;;;3.70;;
438;SDS011;206;48.782;9.252;2023-05-16T14:20:45;3.90;;;3.30;;
438;SDS011;206;48.782;9.252;2023-05-16T14:23:11;5.10;;;4.17;;
438;SDS011;206;48.782;9.252;2023-05-16T14:25:36;5.50;;;3.43;;
438;SDS011;206;48.782;9.252;2023-05-16T14:28:02;3.90;;;3.50;;
438;SDS011;206;48.782;9.252;2023-05-16T14:30:28;3.23;;;3.03;;
438;SDS011;206;48.782;9.252;2023-05-16T14:32:53;6.70;;;3.10;;
438;SDS011;206;48.782;9.252;2023-05-16T14:35:20;5.33;;;3.93;;
438;SDS011;206;48.782;9.252;2023-05-16T14:37:45;5.50;;;2.97;;
438;SDS011;206;48.782;9.252;2023-05-16T14:40:11;3.20;;;3.00;;
438;SDS011;206;48.782;9.252;2023-05-16T14:42:37;4.97;;;4.60;;
438;SDS011;206;48.782;9.252;2023-05-16T14:45:03;9.97;;;3.37;;
438;SDS011;206;48.782;9.252;2023-05-16T14:47:29;3.07;;;2.87;;
438;SDS011;206;48.782;9.252;2023-05-16T14:49:55;3.17;;;2.97;;
438;SDS011;206;48.782;9.252;2023-05-16T14:52:21;3.80;;;3.60;;
438;SDS011;206;48.782;9.252;2023-05-16T14:54:47;3.93;;;3.53;;
438;SDS011;206;48.782;9.252;2023-05-16T14:57:13;5.60;;;2.97;;
438;SDS011;206;48.782;9.252;2023-05-16T14:59:39;3.60;;;2.73;;
438;SDS011;206;48.782;9.252;2023-05-16T15:02:04;3.23;;;3.07;;
438;SDS011;206;48.782;9.252;2023-05-16T15:04:31;6.00;;;3.70;;
438;SDS011;206;48.782;9.252;2023-05-16T15:06:56;2.37;;;2.17;;
438;SDS011;206;48.782;9.252;2023-05-16T15:09:23;3.93;;;2.37;;
438;SDS011;206;48.782;9.252;2023-05-16T15:11:50;2.40;;;2.20;;
438;SDS011;206;48.782;9.252;2023-05-16T15:14:16;3.30;;;3.10;;
438;SDS011;206;48.782;9.252;2023-05-16T15:16:41;12.33;;;3.50;;
438;SDS011;206;48.782;9.252;2023-05-16T15:19:07;2.83;;;2.23;;
438;SDS011;206;48.782;9.252;2023-05-16T15:21:33;2.70;;;2.13;;
438;SDS011;206;48.782;9.252;2023-05-16T15:23:58;3.40;;;2.83;;
438;SDS011;206;48.782;9.252;2023-05-16T15:26:24;2.63;;;2.10;;
438;SDS011;206;48.782;9.252;2023-05-16T15:28:50;2.10;;;1.77;;
438;SDS011;206;48.782;9.252;2023-05-16T15:31:16;2.57;;;1.60;;
438;SDS011;206;48.782;9.252;2023-05-16T15:33:41;3.80;;;1.93;;
438;SDS011;206;48.782;9.252;2023-05-16T15:36:08;5.10;;;2.20;;
438;SDS011;206;48.782;9.252;2023-05-16T15:38:34;2.87;;;2.30;;
438;SDS011;206;48.782;9.252;2023-05-16T15:41:00;5.83;;;2.53;;
438;SDS011;206;48.782;9.252;2023-05-16T15:43:29;2.17;;;1.93;;
438;SDS011;206;48.782;9.252;2023-05-16T15:45:55;5.63;;;2.70;;
438;SDS011;206;48.782;9.252;2023-05-16T15:48:21;3.27;;;2.47;;